createdAt,value
2023-05-15T00:01:51.038Z,41.27
2023-05-15T00:04:17.697Z,41.38
2023-05-15T00:06:44.382Z,41.40
2023-05-15T00:09:11.045Z,41.49
2023-05-15T00:11:37.629Z,41.35
2023-05-15T00:14:04.339Z,41.15
2023-05-15T00:16:30.932Z,41.24
2023-05-15T00:18:57.611Z,41.24
2023-05-15T00:21:24.366Z,41.23
2023-05-15T00:23:53.973Z,41.19
2023-05-15T00:26:20.775Z,41.18
2023-05-15T00:28:47.369Z,41.42
2023-05-15T00:31:14.923Z,41.39
2023-05-15T00:33:41.560Z,41.44
2023-05-15T00:36:09.780Z,41.31
2023-05-15T00:38:36.334Z,41.40
2023-05-15T00:41:06.215Z,41.29
2023-05-15T00:43:33.430Z,41.30
2023-05-15T00:46:01.069Z,41.33
2023-05-15T00:48:29.185Z,41.28
2023-05-15T00:50:59.005Z,41.35
2023-05-15T00:53:27.208Z,41.46
2023-05-15T00:55:57.918Z,41.60
2023-05-15T00:58:26.845Z,41.52
2023-05-15T01:00:53.898Z,41.58
2023-05-15T01:03:20.829Z,41.44
2023-05-15T01:05:47.487Z,41.38
2023-05-15T01:08:32.896Z,41.28
2023-05-15T01:11:00.266Z,41.48
2023-05-15T01:13:26.877Z,41.44
2023-05-15T01:15:55.801Z,41.65
2023-05-15T01:18:22.380Z,41.54
2023-05-15T01:21:10.354Z,41.49
2023-05-15T01:23:58.380Z,41.67
2023-05-15T01:26:58.145Z,41.65
2023-05-15T01:29:30.662Z,41.74
2023-05-15T01:32:02.789Z,41.67
2023-05-15T01:34:46.122Z,41.75
2023-05-15T01:37:17.476Z,41.62
2023-05-15T01:39:47.829Z,41.68
2023-05-15T01:42:17.925Z,41.82
2023-05-15T01:44:54.674Z,41.85
2023-05-15T01:47:38.392Z,41.85
2023-05-15T01:50:08.251Z,41.94
2023-05-15T01:52:40.727Z,41.92
2023-05-15T01:55:08.725Z,41.86
2023-05-15T01:57:36.469Z,41.80
2023-05-15T02:00:04.070Z,41.93
2023-05-15T02:02:42.256Z,41.70
2023-05-15T02:05:09.524Z,41.91
2023-05-15T02:07:36.285Z,41.80
2023-05-15T02:10:03.382Z,41.71
2023-05-15T02:12:31.627Z,42.07
2023-05-15T02:14:59.662Z,41.91
2023-05-15T02:17:34.754Z,42.00
2023-05-15T02:20:01.318Z,42.01
2023-05-15T02:22:27.842Z,41.91
2023-05-15T02:24:54.467Z,41.91
2023-05-15T02:27:27.039Z,42.08
2023-05-15T02:30:30.334Z,42.10
2023-05-15T02:33:17.960Z,42.16
2023-05-15T02:35:56.862Z,42.12
2023-05-15T02:38:30.083Z,42.19
2023-05-15T02:40:58.031Z,42.11
2023-05-15T02:43:26.201Z,42.14
2023-05-15T02:45:54.133Z,42.32
2023-05-15T02:48:21.762Z,42.25
2023-05-15T02:50:48.448Z,42.24
2023-05-15T02:53:16.111Z,42.12
2023-05-15T02:55:42.695Z,42.29
2023-05-15T02:58:09.668Z,42.43
2023-05-15T03:00:36.189Z,42.29
2023-05-15T03:03:02.771Z,42.43
2023-05-15T03:05:29.389Z,42.54
2023-05-15T03:07:57.352Z,42.55
2023-05-15T03:10:24.258Z,42.66
2023-05-15T03:12:50.792Z,42.75
2023-05-15T03:15:17.868Z,42.59
2023-05-15T03:17:44.788Z,42.57
2023-05-15T03:20:11.434Z,42.78
2023-05-15T03:22:38.046Z,42.83
2023-05-15T03:25:04.888Z,42.81
2023-05-15T03:27:31.465Z,42.88
2023-05-15T03:29:58.179Z,42.83
2023-05-15T03:32:24.842Z,42.72
2023-05-15T03:34:51.377Z,42.87
2023-05-15T03:37:17.997Z,42.72
2023-05-15T03:39:44.574Z,42.73
2023-05-15T03:42:11.388Z,42.86
2023-05-15T03:44:37.910Z,42.95
2023-05-15T03:47:04.715Z,42.86
2023-05-15T03:49:31.287Z,42.88
2023-05-15T03:51:57.896Z,42.95
2023-05-15T03:54:24.481Z,43.10
2023-05-15T03:56:52.905Z,43.02
2023-05-15T03:59:19.427Z,43.00
2023-05-15T04:02:02.954Z,42.83
2023-05-15T04:04:30.559Z,42.94
2023-05-15T04:06:57.236Z,42.93
2023-05-15T04:09:23.777Z,42.95
2023-05-15T04:11:50.298Z,43.29
2023-05-15T04:14:16.803Z,43.26
2023-05-15T04:16:43.475Z,42.94
2023-05-15T04:19:10.264Z,43.00
2023-05-15T04:21:36.807Z,42.91
2023-05-15T04:24:03.507Z,42.90
2023-05-15T04:26:31.625Z,43.05
2023-05-15T04:29:03.907Z,42.95
2023-05-15T04:31:31.847Z,42.94
2023-05-15T04:33:58.677Z,42.77
2023-05-15T04:36:25.418Z,42.63
2023-05-15T04:38:52.107Z,43.00
2023-05-15T04:41:18.649Z,42.85
2023-05-15T04:43:45.886Z,42.93
2023-05-15T04:46:12.754Z,42.98
2023-05-15T04:48:39.678Z,42.88
2023-05-15T04:51:07.477Z,42.89
2023-05-15T04:53:34.241Z,42.81
2023-05-15T04:56:04.078Z,42.93
2023-05-15T04:58:30.622Z,43.07
2023-05-15T05:00:57.170Z,43.03
2023-05-15T05:03:23.802Z,42.97
2023-05-15T05:05:50.326Z,42.72
2023-05-15T05:08:16.811Z,42.91
2023-05-15T05:10:43.349Z,42.81
2023-05-15T05:13:09.898Z,42.76
2023-05-15T05:15:37.135Z,42.69
2023-05-15T05:18:03.972Z,42.90
2023-05-15T05:20:30.645Z,42.83
2023-05-15T05:22:57.216Z,42.68
2023-05-15T05:25:24.056Z,42.59
2023-05-15T05:27:50.874Z,42.87
2023-05-15T05:30:17.564Z,42.67
2023-05-15T05:32:44.138Z,42.67
2023-05-15T05:35:10.843Z,42.83
2023-05-15T05:37:38.856Z,42.77
2023-05-15T05:40:08.804Z,42.93
2023-05-15T05:42:35.550Z,42.87
2023-05-15T05:45:02.123Z,42.86
2023-05-15T05:47:28.676Z,42.75
2023-05-15T05:49:55.369Z,42.65
2023-05-15T05:52:21.979Z,42.61
2023-05-15T05:54:48.696Z,42.72
2023-05-15T05:57:15.507Z,42.67
2023-05-15T05:59:42.169Z,42.42
2023-05-15T06:02:09.268Z,42.84
2023-05-15T06:04:36.045Z,42.72
2023-05-15T06:07:03.330Z,42.62
2023-05-15T06:09:29.941Z,42.65
2023-05-15T06:11:56.489Z,42.71
2023-05-15T06:14:23.309Z,42.70
2023-05-15T06:16:50.187Z,42.78
2023-05-15T06:19:16.948Z,42.69
2023-05-15T06:21:43.842Z,42.89
2023-05-15T06:24:10.522Z,42.92
2023-05-15T06:26:37.212Z,43.11
2023-05-15T06:29:03.719Z,43.19
2023-05-15T06:31:30.366Z,43.32
2023-05-15T06:33:56.889Z,43.62
2023-05-15T06:36:24.035Z,43.49
2023-05-15T06:38:50.583Z,43.72
2023-05-15T06:41:17.105Z,43.78
2023-05-15T06:43:43.660Z,43.89
2023-05-15T06:46:10.399Z,43.81
2023-05-15T06:48:37.278Z,43.79
2023-05-15T06:51:03.871Z,44.05
2023-05-15T06:53:30.704Z,44.11
2023-05-15T06:55:57.300Z,44.46
2023-05-15T06:58:24.297Z,44.42
2023-05-15T07:00:52.045Z,44.60
2023-05-15T07:03:19.517Z,44.67
2023-05-15T07:05:46.453Z,44.78
2023-05-15T07:08:12.983Z,44.81
2023-05-15T07:10:39.527Z,44.87
2023-05-15T07:13:06.063Z,44.83
2023-05-15T07:15:32.589Z,45.02
2023-05-15T07:17:59.243Z,45.20
2023-05-15T07:20:28.554Z,45.58
2023-05-15T07:22:57.142Z,45.94
2023-05-15T07:25:25.008Z,45.99
2023-05-15T07:27:52.078Z,46.20
2023-05-15T07:30:19.033Z,46.61
2023-05-15T07:32:48.745Z,46.86
2023-05-15T07:35:15.808Z,47.13
2023-05-15T07:37:42.559Z,47.19
2023-05-15T07:40:09.504Z,47.29
2023-05-15T07:42:36.159Z,47.52
2023-05-15T07:45:03.305Z,47.52
2023-05-15T07:47:30.058Z,47.85
2023-05-15T07:49:57.015Z,48.08
2023-05-15T07:52:23.709Z,48.08
2023-05-15T07:54:50.292Z,48.13
2023-05-15T07:57:16.995Z,48.15
2023-05-15T07:59:43.612Z,48.51
2023-05-15T08:02:10.391Z,48.49
2023-05-15T08:04:37.038Z,48.74
2023-05-15T08:07:03.809Z,48.80
2023-05-15T08:09:30.420Z,49.05
2023-05-15T08:11:57.528Z,49.23
2023-05-15T08:14:24.316Z,49.38
2023-05-15T08:16:51.727Z,49.47
2023-05-15T08:19:19.301Z,49.39
2023-05-15T08:21:46.393Z,49.15
2023-05-15T08:24:13.044Z,49.26
2023-05-15T08:26:39.809Z,49.09
2023-05-15T08:29:06.467Z,49.17
2023-05-15T08:31:33.250Z,49.36
2023-05-15T08:34:00.161Z,49.47
2023-05-15T08:36:26.996Z,49.70
2023-05-15T08:38:53.859Z,49.34
2023-05-15T08:41:39.984Z,49.55
2023-05-15T08:44:09.501Z,49.92
2023-05-15T08:46:36.632Z,50.04
2023-05-15T08:49:18.860Z,49.97
2023-05-15T08:51:45.833Z,49.98
2023-05-15T08:54:12.724Z,49.76
2023-05-15T08:56:39.585Z,49.96
2023-05-15T08:59:06.512Z,50.08
2023-05-15T09:01:33.963Z,50.23
2023-05-15T09:04:00.685Z,50.19
2023-05-15T09:06:28.309Z,50.00
2023-05-15T09:08:56.794Z,49.88
2023-05-15T09:11:26.405Z,50.06
2023-05-15T09:13:53.585Z,50.27
2023-05-15T09:16:21.600Z,50.51
2023-05-15T09:18:50.090Z,51.04
2023-05-15T09:21:22.823Z,50.97
2023-05-15T09:23:49.527Z,51.31
2023-05-15T09:26:16.696Z,51.71
2023-05-15T09:28:43.553Z,51.99
2023-05-15T09:31:11.203Z,52.00
2023-05-15T09:33:40.193Z,51.89
2023-05-15T09:36:07.951Z,52.22
2023-05-15T09:38:43.217Z,52.25
2023-05-15T09:41:09.884Z,52.19
2023-05-15T09:43:41.368Z,52.14
2023-05-15T09:46:08.716Z,52.07
2023-05-15T09:48:35.964Z,52.33
2023-05-15T09:51:02.998Z,52.41
2023-05-15T09:53:30.524Z,52.67
2023-05-15T09:55:57.181Z,53.00
2023-05-15T09:58:23.843Z,53.21
2023-05-15T10:00:50.472Z,53.10
2023-05-15T10:03:19.234Z,53.28
2023-05-15T10:05:46.066Z,53.10
2023-05-15T10:08:12.995Z,53.22
2023-05-15T10:10:39.800Z,53.11
2023-05-15T10:13:08.303Z,53.42
2023-05-15T10:15:35.377Z,53.19
2023-05-15T10:18:04.798Z,53.44
2023-05-15T10:20:35.378Z,53.56
2023-05-15T10:23:04.786Z,53.58
2023-05-15T10:25:55.852Z,53.61
2023-05-15T10:28:23.022Z,53.77
2023-05-15T10:30:49.746Z,53.54
2023-05-15T10:33:16.903Z,53.60
2023-05-15T10:35:44.402Z,53.58
2023-05-15T10:38:11.817Z,53.41
2023-05-15T10:40:41.046Z,53.34
2023-05-15T10:43:10.183Z,53.29
2023-05-15T10:45:37.083Z,53.23
2023-05-15T10:48:06.168Z,53.29
2023-05-15T10:50:33.252Z,53.12
2023-05-15T10:53:00.787Z,53.25
2023-05-15T10:55:27.414Z,53.61
2023-05-15T10:57:54.981Z,53.70
2023-05-15T11:00:26.937Z,53.90
2023-05-15T11:02:57.007Z,53.94
2023-05-15T11:05:24.414Z,54.10
2023-05-15T11:08:15.992Z,54.34
2023-05-15T11:10:42.744Z,54.52
2023-05-15T11:13:09.451Z,54.56
2023-05-15T11:15:43.300Z,54.96
2023-05-15T11:18:10.048Z,55.48
2023-05-15T11:20:41.734Z,56.04
2023-05-15T11:23:08.904Z,56.25
2023-05-15T11:25:36.769Z,56.65
2023-05-15T11:28:04.816Z,56.76
2023-05-15T11:30:39.672Z,57.12
2023-05-15T11:33:13.378Z,57.38
2023-05-15T11:35:49.453Z,57.68
2023-05-15T11:38:18.098Z,58.26
2023-05-15T11:40:47.630Z,58.52
2023-05-15T11:43:30.972Z,58.74
2023-05-15T11:46:04.358Z,58.85
2023-05-15T11:48:36.107Z,58.99
2023-05-15T11:51:03.139Z,59.17
2023-05-15T11:53:31.212Z,59.48
2023-05-15T11:55:59.723Z,59.53
2023-05-15T11:58:26.943Z,59.63
2023-05-15T12:00:54.243Z,59.87
2023-05-15T12:03:26.550Z,59.97
2023-05-15T12:05:59.524Z,60.18
2023-05-15T12:08:32.468Z,60.19
2023-05-15T12:11:00.713Z,60.47
2023-05-15T12:13:27.457Z,60.54
2023-05-15T12:15:56.214Z,60.64
2023-05-15T12:18:23.216Z,60.82
2023-05-15T12:20:53.036Z,61.01
2023-05-15T12:23:21.870Z,61.31
2023-05-15T12:25:50.286Z,61.47
2023-05-15T12:28:17.321Z,61.44
2023-05-15T12:30:44.420Z,61.53
2023-05-15T12:33:11.358Z,61.80
2023-05-15T12:35:43.740Z,62.03
2023-05-15T12:38:15.829Z,62.16
2023-05-15T12:40:44.094Z,62.32
2023-05-15T12:43:11.272Z,62.53
2023-05-15T12:45:38.856Z,62.55
2023-05-15T12:48:05.981Z,62.75
2023-05-15T12:50:34.249Z,62.73
2023-05-15T12:53:02.583Z,62.76
2023-05-15T12:55:34.004Z,62.89
2023-05-15T12:58:04.455Z,63.00
2023-05-15T13:00:34.454Z,63.16
2023-05-15T13:03:01.753Z,63.28
2023-05-15T13:05:32.146Z,63.25
2023-05-15T13:08:07.551Z,63.35
2023-05-15T13:10:37.176Z,63.45
2023-05-15T13:13:04.091Z,63.59
2023-05-15T13:15:39.707Z,63.64
2023-05-15T13:18:07.406Z,63.78
2023-05-15T13:20:35.506Z,63.80
2023-05-15T13:23:02.465Z,63.90
2023-05-15T13:25:32.007Z,63.85
2023-05-15T13:28:00.624Z,64.06
2023-05-15T13:30:28.532Z,64.06
2023-05-15T13:32:55.988Z,64.09
2023-05-15T13:35:23.586Z,64.23
2023-05-15T13:37:50.451Z,64.38
2023-05-15T13:40:17.150Z,64.50
2023-05-15T13:42:44.622Z,64.43
2023-05-15T13:45:15.930Z,64.54
2023-05-15T13:47:43.832Z,64.67
2023-05-15T13:50:12.761Z,64.77
2023-05-15T13:52:41.066Z,64.79
2023-05-15T13:55:09.807Z,64.83
2023-05-15T13:57:37.893Z,64.94
2023-05-15T14:00:13.331Z,65.12
2023-05-15T14:02:41.877Z,64.99
2023-05-15T14:05:13.738Z,64.98
2023-05-15T14:07:41.404Z,65.00
2023-05-15T14:10:08.647Z,65.15
2023-05-15T14:12:38.127Z,65.11
2023-05-15T14:15:05.217Z,65.28
2023-05-15T14:17:31.926Z,65.29
2023-05-15T14:19:58.681Z,65.26
2023-05-15T14:22:25.537Z,65.30
2023-05-15T14:24:53.222Z,65.44
2023-05-15T14:27:20.327Z,65.54
2023-05-15T14:29:48.878Z,65.58
2023-05-15T14:32:16.385Z,65.48
2023-05-15T14:34:43.304Z,65.64
2023-05-15T14:37:10.348Z,65.52
2023-05-15T14:39:37.242Z,65.73
2023-05-15T14:42:04.440Z,65.91
2023-05-15T14:44:31.158Z,65.82
2023-05-15T14:47:11.073Z,65.77
2023-05-15T14:49:38.047Z,65.82
2023-05-15T14:52:09.047Z,65.88
2023-05-15T14:54:36.435Z,65.82
2023-05-15T14:57:04.076Z,65.89
2023-05-15T14:59:31.034Z,66.04
2023-05-15T15:01:58.157Z,66.13
2023-05-15T15:04:26.619Z,66.20
2023-05-15T15:06:56.762Z,66.21
2023-05-15T15:09:24.041Z,66.05
2023-05-15T15:11:51.279Z,66.02
2023-05-15T15:14:17.960Z,66.16
2023-05-15T15:16:46.129Z,66.07
2023-05-15T15:19:13.964Z,65.98
2023-05-15T15:21:40.895Z,66.03
2023-05-15T15:24:07.668Z,65.99
2023-05-15T15:26:34.354Z,65.91
2023-05-15T15:29:01.203Z,66.17
2023-05-15T15:31:29.770Z,66.13
2023-05-15T15:33:57.697Z,66.05
2023-05-15T15:36:25.501Z,66.30
2023-05-15T15:38:52.366Z,66.23
2023-05-15T15:41:21.100Z,66.19
2023-05-15T15:43:47.974Z,66.24
2023-05-15T15:46:14.673Z,66.45
2023-05-15T15:48:41.475Z,66.31
2023-05-15T15:51:08.465Z,66.39
2023-05-15T15:53:35.304Z,66.57
2023-05-15T15:56:01.997Z,66.63
2023-05-15T15:58:29.901Z,66.61
2023-05-15T16:00:57.728Z,66.58
2023-05-15T16:03:24.890Z,66.64
2023-05-15T16:05:51.916Z,66.48
2023-05-15T16:08:18.764Z,66.57
2023-05-15T16:10:45.530Z,66.62
2023-05-15T16:13:12.330Z,66.60
2023-05-15T16:15:38.880Z,66.65
2023-05-15T16:18:05.644Z,66.50
2023-05-15T16:20:33.589Z,66.49
2023-05-15T16:23:01.756Z,66.59
2023-05-15T16:25:28.364Z,66.54
2023-05-15T16:27:55.009Z,66.51
2023-05-15T16:30:21.807Z,66.53
2023-05-15T16:32:49.054Z,66.41
2023-05-15T16:35:15.855Z,66.68
2023-05-15T16:37:42.477Z,66.65
2023-05-15T16:40:09.853Z,66.30
2023-05-15T16:42:38.033Z,66.51
2023-05-15T16:45:05.706Z,66.72
2023-05-15T16:47:32.532Z,66.41
2023-05-15T16:49:59.292Z,66.25
2023-05-15T16:52:25.955Z,66.45
2023-05-15T16:54:52.519Z,66.41
2023-05-15T16:57:19.124Z,66.30
2023-05-15T16:59:46.044Z,66.16
2023-05-15T17:02:12.672Z,66.21
2023-05-15T17:04:39.290Z,66.47
2023-05-15T17:07:06.039Z,66.47
2023-05-15T17:09:32.857Z,66.52
2023-05-15T17:12:00.706Z,66.60
2023-05-15T17:14:27.526Z,66.40
2023-05-15T17:16:56.587Z,66.44
2023-05-15T17:19:23.268Z,66.54
2023-05-15T17:21:49.917Z,66.41
2023-05-15T17:24:16.648Z,66.58
2023-05-15T17:26:43.279Z,66.61
2023-05-15T17:29:10.929Z,66.65
2023-05-15T17:31:38.670Z,66.54
2023-05-15T17:34:05.490Z,66.52
2023-05-15T17:36:33.716Z,66.50
2023-05-15T17:39:00.594Z,66.39
2023-05-15T17:41:27.198Z,66.64
2023-05-15T17:43:53.791Z,66.62
2023-05-15T17:46:20.659Z,66.65
2023-05-15T17:48:47.362Z,66.63
2023-05-15T17:51:13.991Z,66.55
2023-05-15T17:53:40.826Z,66.67
2023-05-15T17:56:08.128Z,66.69
2023-05-15T17:58:34.727Z,66.80
2023-05-15T18:01:01.530Z,66.51
2023-05-15T18:03:28.892Z,66.47
2023-05-15T18:05:58.015Z,66.61
2023-05-15T18:08:24.708Z,66.64
2023-05-15T18:10:51.783Z,66.59
2023-05-15T18:13:18.866Z,66.55
2023-05-15T18:15:45.822Z,66.72
2023-05-15T18:18:12.595Z,66.64
2023-05-15T18:20:39.409Z,66.54
2023-05-15T18:23:06.153Z,66.51
2023-05-15T18:25:36.785Z,66.56
2023-05-15T18:28:04.405Z,66.68
2023-05-15T18:30:31.248Z,66.64
2023-05-15T18:33:00.239Z,66.66
2023-05-15T18:35:27.170Z,66.65
2023-05-15T18:37:54.225Z,66.69
2023-05-15T18:40:21.511Z,66.90
2023-05-15T18:42:48.024Z,66.87
2023-05-15T18:45:16.154Z,66.73
2023-05-15T18:47:42.713Z,66.75
2023-05-15T18:50:09.672Z,66.93
2023-05-15T18:52:36.294Z,66.78
2023-05-15T18:55:03.234Z,66.80
2023-05-15T18:57:30.139Z,66.99
2023-05-15T18:59:56.797Z,67.12
2023-05-15T19:02:25.859Z,67.18
2023-05-15T19:04:52.896Z,67.10
2023-05-15T19:07:19.430Z,67.13
2023-05-15T19:09:45.968Z,67.15
2023-05-15T19:12:12.497Z,67.18
2023-05-15T19:14:39.096Z,67.24
2023-05-15T19:17:06.021Z,67.12
2023-05-15T19:19:33.677Z,67.24
2023-05-15T19:22:00.270Z,67.29
2023-05-15T19:24:27.198Z,67.57
2023-05-15T19:26:53.866Z,67.56
2023-05-15T19:29:20.567Z,67.32
2023-05-15T19:31:47.151Z,67.23
2023-05-15T19:34:14.111Z,67.36
2023-05-15T19:36:40.868Z,67.46
2023-05-15T19:39:07.506Z,67.39
2023-05-15T19:41:34.115Z,67.18
2023-05-15T19:44:00.980Z,67.28
2023-05-15T19:46:27.730Z,67.47
2023-05-15T19:48:54.424Z,67.49
2023-05-15T19:51:21.060Z,67.59
2023-05-15T19:53:47.607Z,67.46
2023-05-15T19:56:14.298Z,67.26
2023-05-15T19:58:41.112Z,67.15
2023-05-15T20:01:07.844Z,67.31
2023-05-15T20:03:34.722Z,67.23
2023-05-15T20:06:02.472Z,67.21
2023-05-15T20:08:29.828Z,67.32
2023-05-15T20:10:57.214Z,67.32
2023-05-15T20:13:24.334Z,67.28
2023-05-15T20:15:58.104Z,67.14
2023-05-15T20:18:28.695Z,67.20
2023-05-15T20:20:55.945Z,67.07
2023-05-15T20:23:22.605Z,67.32
2023-05-15T20:25:50.487Z,67.20
2023-05-15T20:28:17.853Z,67.33
2023-05-15T20:30:47.392Z,67.55
2023-05-15T20:33:14.290Z,67.16
2023-05-15T20:35:42.607Z,67.25
2023-05-15T20:38:10.535Z,67.54
2023-05-15T20:40:37.808Z,67.53
2023-05-15T20:43:04.761Z,67.66
2023-05-15T20:45:34.103Z,67.57
2023-05-15T20:48:01.211Z,67.53
2023-05-15T20:50:28.360Z,67.58
2023-05-15T20:52:55.730Z,67.39
2023-05-15T20:55:22.795Z,67.69
2023-05-15T20:57:50.338Z,67.59
2023-05-15T21:00:18.130Z,67.65
2023-05-15T21:02:46.578Z,67.69
2023-05-15T21:05:14.079Z,67.82
2023-05-15T21:07:41.155Z,67.80
2023-05-15T21:10:08.855Z,67.82
2023-05-15T21:12:35.632Z,67.94
2023-05-15T21:15:02.952Z,68.17
2023-05-15T21:17:30.155Z,68.04
2023-05-15T21:19:58.556Z,68.05
2023-05-15T21:22:25.315Z,68.12
2023-05-15T21:24:52.145Z,68.22
2023-05-15T21:27:19.240Z,68.07
2023-05-15T21:29:46.527Z,68.16
2023-05-15T21:32:13.190Z,68.10
2023-05-15T21:34:40.019Z,68.08
2023-05-15T21:37:06.933Z,68.13
2023-05-15T21:39:33.691Z,68.15
2023-05-15T21:42:00.260Z,68.05
2023-05-15T21:44:27.059Z,68.17
2023-05-15T21:46:53.804Z,68.16
2023-05-15T21:49:20.861Z,68.11
2023-05-15T21:51:47.547Z,68.22
2023-05-15T21:54:14.349Z,68.33
2023-05-15T21:56:41.231Z,68.43
2023-05-15T21:59:08.138Z,68.41
2023-05-15T22:01:36.185Z,68.45
2023-05-15T22:04:03.067Z,68.53
2023-05-15T22:06:29.765Z,68.56
2023-05-15T22:08:56.484Z,68.56
2023-05-15T22:11:23.514Z,68.50
2023-05-15T22:13:50.055Z,68.45
2023-05-15T22:16:17.045Z,68.39
2023-05-15T22:18:45.279Z,68.55
2023-05-15T22:21:11.960Z,68.57
2023-05-15T22:23:38.485Z,68.55
2023-05-15T22:26:05.012Z,68.56
2023-05-15T22:28:31.524Z,68.68
2023-05-15T22:30:58.047Z,68.61
2023-05-15T22:33:24.967Z,68.64
2023-05-15T22:35:52.737Z,68.65
2023-05-15T22:38:20.026Z,68.58
2023-05-15T22:40:52.839Z,68.45
2023-05-15T22:43:20.274Z,68.58
2023-05-15T22:45:46.865Z,68.57
2023-05-15T22:48:15.212Z,68.63
2023-05-15T22:50:41.813Z,68.74
2023-05-15T22:53:08.288Z,68.62
2023-05-15T22:55:35.107Z,68.63
2023-05-15T22:58:01.608Z,68.54
2023-05-15T23:00:28.334Z,68.61
2023-05-15T23:02:55.975Z,68.70
2023-05-15T23:05:23.517Z,68.65
2023-05-15T23:07:50.518Z,68.70
2023-05-15T23:10:17.093Z,68.65
2023-05-15T23:12:43.654Z,68.65
2023-05-15T23:15:10.654Z,68.71
2023-05-15T23:17:37.342Z,68.83
2023-05-15T23:20:06.754Z,68.96
2023-05-15T23:22:33.354Z,69.05
2023-05-15T23:24:59.890Z,69.00
2023-05-15T23:27:26.436Z,69.03
2023-05-15T23:29:53.528Z,69.13
2023-05-15T23:32:20.029Z,68.96
2023-05-15T23:34:46.722Z,68.98
2023-05-15T23:37:13.468Z,69.05
2023-05-15T23:39:40.047Z,69.04
2023-05-15T23:42:06.700Z,69.00
2023-05-15T23:44:33.231Z,69.07
2023-05-15T23:46:59.897Z,69.16
2023-05-15T23:49:26.497Z,69.11
2023-05-15T23:51:52.995Z,69.17
2023-05-15T23:54:19.510Z,69.33
2023-05-15T23:56:46.444Z,69.15
2023-05-15T23:59:13.744Z,69.18
